createdAt,value
2023-01-13T00:00:17.309Z,81.95
2023-01-13T00:02:44.031Z,81.18
2023-01-13T00:05:11.124Z,81.08
2023-01-13T00:07:40.276Z,81.26
2023-01-13T00:10:13.790Z,80.51
2023-01-13T00:12:41.471Z,81.32
2023-01-13T00:15:08.883Z,81.17
2023-01-13T00:17:35.576Z,80.70
2023-01-13T00:20:02.387Z,81.24
2023-01-13T00:22:29.430Z,81.40
2023-01-13T00:24:58.271Z,80.54
2023-01-13T00:27:25.788Z,81.27
2023-01-13T00:29:52.418Z,81.51
2023-01-13T00:32:22.148Z,81.13
2023-01-13T00:34:48.735Z,81.32
2023-01-13T00:37:15.533Z,81.74
2023-01-13T00:39:42.380Z,81.37
2023-01-13T00:42:27.784Z,80.58
2023-01-13T00:44:54.490Z,81.18
2023-01-13T00:47:21.149Z,82.06
2023-01-13T00:49:47.715Z,81.46
2023-01-13T00:52:17.460Z,82.21
2023-01-13T00:54:44.120Z,82.23
2023-01-13T00:57:13.212Z,82.31
2023-01-13T00:59:39.868Z,81.36
2023-01-13T01:02:06.683Z,82.87
2023-01-13T01:04:33.345Z,82.36
2023-01-13T01:06:59.997Z,81.37
2023-01-13T01:09:32.719Z,82.21
2023-01-13T01:12:02.044Z,81.73
2023-01-13T01:14:31.684Z,81.36
2023-01-13T01:17:06.163Z,81.63
2023-01-13T01:19:32.916Z,81.21
2023-01-13T01:21:59.488Z,81.51
2023-01-13T01:24:26.105Z,81.17
2023-01-13T01:26:52.712Z,81.34
2023-01-13T01:29:19.332Z,82.18
2023-01-13T01:31:46.776Z,81.95
2023-01-13T01:34:13.843Z,81.72
2023-01-13T01:36:43.537Z,82.24
2023-01-13T01:39:10.158Z,81.50
2023-01-13T01:41:37.105Z,81.23
2023-01-13T01:44:22.783Z,81.48
2023-01-13T01:46:52.543Z,80.93
2023-01-13T01:49:27.809Z,81.54
2023-01-13T01:51:57.552Z,81.45
2023-01-13T01:54:42.497Z,81.28
2023-01-13T01:57:11.426Z,81.23
2023-01-13T01:59:38.833Z,81.70
2023-01-13T02:02:06.733Z,80.93
2023-01-13T02:04:43.445Z,81.51
2023-01-13T02:07:10.563Z,81.56
2023-01-13T02:09:37.220Z,81.36
2023-01-13T02:12:22.582Z,81.21
2023-01-13T02:14:49.253Z,83.39
2023-01-13T02:17:29.346Z,82.24
2023-01-13T02:20:15.466Z,82.31
2023-01-13T02:22:47.152Z,80.68
2023-01-13T02:25:14.003Z,81.13
2023-01-13T02:27:43.752Z,81.23
2023-01-13T02:30:48.047Z,80.99
2023-01-13T02:33:17.723Z,80.03
2023-01-13T02:35:50.357Z,80.18
2023-01-13T02:38:22.787Z,78.81
2023-01-13T02:40:59.214Z,78.55
2023-01-13T02:44:09.461Z,78.35
2023-01-13T02:46:48.285Z,77.61
2023-01-13T02:49:20.097Z,76.01
2023-01-13T02:51:47.527Z,76.39
2023-01-13T02:54:18.160Z,76.56
2023-01-13T02:56:47.749Z,75.95
2023-01-13T02:59:14.465Z,75.09
2023-01-13T03:01:42.439Z,74.90
2023-01-13T03:04:13.193Z,73.82
2023-01-13T03:06:54.573Z,73.92
2023-01-13T03:09:33.036Z,74.21
2023-01-13T03:12:07.259Z,74.00
2023-01-13T03:14:43.622Z,74.58
2023-01-13T03:17:10.194Z,74.71
2023-01-13T03:19:55.692Z,74.86
2023-01-13T03:22:32.061Z,74.21
2023-01-13T03:25:18.693Z,73.58
2023-01-13T03:27:57.284Z,73.10
2023-01-13T03:30:29.773Z,72.27
2023-01-13T03:33:17.111Z,71.33
2023-01-13T03:35:45.717Z,71.87
2023-01-13T03:38:15.078Z,71.15
2023-01-13T03:40:44.398Z,71.84
2023-01-13T03:43:33.162Z,72.00
2023-01-13T03:46:03.512Z,73.77
2023-01-13T03:48:33.210Z,73.78
2023-01-13T03:51:06.472Z,74.70
2023-01-13T03:53:43.621Z,74.92
2023-01-13T03:56:16.488Z,76.85
2023-01-13T03:58:45.752Z,77.02
2023-01-13T04:01:15.827Z,77.23
2023-01-13T04:04:01.440Z,77.53
2023-01-13T04:06:46.875Z,77.47
2023-01-13T04:09:31.991Z,77.35
2023-01-13T04:12:07.475Z,77.04
2023-01-13T04:14:35.023Z,75.90
2023-01-13T04:17:01.595Z,76.36
2023-01-13T04:19:28.222Z,76.99
2023-01-13T04:21:54.918Z,76.51
2023-01-13T04:24:21.532Z,75.71
2023-01-13T04:26:48.148Z,75.75
2023-01-13T04:29:15.807Z,74.87
2023-01-13T04:31:42.952Z,76.41
2023-01-13T04:34:12.643Z,75.96
2023-01-13T04:36:42.282Z,75.11
2023-01-13T04:39:09.471Z,75.19
2023-01-13T04:41:54.681Z,74.45
2023-01-13T04:44:21.311Z,75.24
2023-01-13T04:46:47.922Z,74.39
2023-01-13T04:49:14.719Z,73.89
2023-01-13T04:51:41.266Z,73.32
2023-01-13T04:54:09.629Z,73.46
2023-01-13T04:56:39.402Z,73.20
2023-01-13T04:59:06.113Z,73.08
2023-01-13T05:01:32.825Z,73.40
2023-01-13T05:03:59.580Z,73.58
2023-01-13T05:06:26.172Z,73.00
2023-01-13T05:08:52.855Z,72.71
2023-01-13T05:11:38.271Z,72.41
2023-01-13T05:14:25.897Z,72.04
2023-01-13T05:17:00.375Z,71.54
2023-01-13T05:19:28.257Z,70.63
2023-01-13T05:22:13.532Z,70.69
2023-01-13T05:24:59.355Z,70.23
2023-01-13T05:27:26.395Z,69.96
2023-01-13T05:29:53.843Z,69.48
2023-01-13T05:32:20.872Z,68.67
2023-01-13T05:34:47.574Z,69.14
2023-01-13T05:37:14.300Z,68.95
2023-01-13T05:39:59.549Z,68.46
2023-01-13T05:42:44.715Z,69.00
2023-01-13T05:45:11.708Z,68.78
2023-01-13T05:47:38.390Z,68.54
2023-01-13T05:50:05.658Z,68.11
2023-01-13T05:52:34.359Z,68.63
2023-01-13T05:55:01.028Z,70.39
2023-01-13T05:57:27.588Z,70.33
2023-01-13T06:00:00.366Z,70.30
2023-01-13T06:02:27.359Z,70.05
2023-01-13T06:04:53.921Z,71.28
2023-01-13T06:07:20.537Z,71.23
2023-01-13T06:09:49.408Z,71.59
2023-01-13T06:12:16.093Z,71.27
2023-01-13T06:14:42.772Z,71.37
2023-01-13T06:17:14.079Z,70.56
2023-01-13T06:19:41.156Z,70.54
2023-01-13T06:22:24.191Z,70.46
2023-01-13T06:24:53.653Z,69.83
2023-01-13T06:27:21.014Z,70.05
2023-01-13T06:29:47.866Z,68.87
2023-01-13T06:32:16.802Z,69.84
2023-01-13T06:34:53.266Z,68.70
2023-01-13T06:37:23.406Z,67.46
2023-01-13T06:39:50.045Z,67.93
2023-01-13T06:42:35.359Z,67.27
2023-01-13T06:45:01.984Z,68.12
2023-01-13T06:47:28.552Z,67.88
2023-01-13T06:49:55.236Z,68.30
2023-01-13T06:52:21.922Z,69.08
2023-01-13T06:54:48.630Z,68.68
2023-01-13T06:57:15.255Z,68.75
2023-01-13T06:59:44.226Z,68.07
2023-01-13T07:02:10.950Z,68.85
2023-01-13T07:04:37.701Z,69.43
2023-01-13T07:07:04.263Z,69.64
2023-01-13T07:09:30.944Z,70.43
2023-01-13T07:11:58.261Z,70.47
2023-01-13T07:14:54.117Z,70.95
2023-01-13T07:17:25.499Z,69.26
2023-01-13T07:19:55.547Z,68.90
2023-01-13T07:22:22.254Z,69.26
2023-01-13T07:24:48.883Z,69.22
2023-01-13T07:27:15.542Z,68.31
2023-01-13T07:29:43.863Z,67.93
2023-01-13T07:32:10.516Z,69.21
2023-01-13T07:34:37.086Z,69.00
2023-01-13T07:37:07.403Z,68.19
2023-01-13T07:39:34.064Z,68.62
2023-01-13T07:42:19.272Z,69.09
2023-01-13T07:44:48.512Z,67.95
2023-01-13T07:47:17.192Z,68.04
2023-01-13T07:49:43.813Z,68.19
2023-01-13T07:52:13.484Z,67.79
2023-01-13T07:54:41.323Z,67.42
2023-01-13T07:57:08.398Z,68.06
2023-01-13T07:59:36.112Z,67.42
2023-01-13T08:02:02.850Z,67.71
2023-01-13T08:04:29.670Z,67.20
2023-01-13T08:06:56.322Z,66.84
2023-01-13T08:09:26.112Z,66.98
2023-01-13T08:12:14.345Z,66.59
2023-01-13T08:14:41.125Z,66.05
2023-01-13T08:17:08.161Z,66.08
2023-01-13T08:19:34.866Z,66.62
2023-01-13T08:22:01.485Z,65.64
2023-01-13T08:24:28.151Z,64.96
2023-01-13T08:26:54.811Z,64.61
2023-01-13T08:29:21.482Z,64.70
2023-01-13T08:31:48.102Z,64.45
2023-01-13T08:34:21.856Z,64.98
2023-01-13T08:36:51.792Z,64.27
2023-01-13T08:39:18.776Z,64.41
2023-01-13T08:42:02.767Z,63.96
2023-01-13T08:44:30.827Z,63.15
2023-01-13T08:46:57.854Z,63.22
2023-01-13T08:49:25.072Z,63.19
2023-01-13T08:51:52.263Z,63.14
2023-01-13T08:54:19.027Z,63.36
2023-01-13T08:56:46.276Z,63.18
2023-01-13T08:59:13.962Z,62.29
2023-01-13T09:01:41.140Z,62.63
2023-01-13T09:04:13.542Z,62.22
2023-01-13T09:06:40.193Z,61.82
2023-01-13T09:09:06.784Z,61.95
2023-01-13T09:11:54.012Z,61.39
2023-01-13T09:14:21.337Z,61.60
2023-01-13T09:16:48.001Z,60.65
2023-01-13T09:19:14.903Z,60.66
2023-01-13T09:21:41.852Z,61.07
2023-01-13T09:24:08.578Z,60.84
2023-01-13T09:26:35.227Z,60.27
2023-01-13T09:29:04.917Z,60.74
2023-01-13T09:31:34.543Z,60.72
2023-01-13T09:34:20.467Z,59.77
2023-01-13T09:36:47.317Z,58.61
2023-01-13T09:39:13.959Z,58.62
2023-01-13T09:42:03.720Z,58.06
2023-01-13T09:44:50.587Z,58.65
2023-01-13T09:47:37.559Z,58.12
2023-01-13T09:50:10.378Z,58.43
2023-01-13T09:52:37.135Z,57.81
2023-01-13T09:55:05.643Z,58.16
2023-01-13T09:57:34.477Z,58.09
2023-01-13T10:00:01.096Z,58.07
2023-01-13T10:02:56.912Z,57.75
2023-01-13T10:05:42.322Z,58.45
2023-01-13T10:08:13.491Z,58.40
2023-01-13T10:10:45.645Z,58.23
2023-01-13T10:13:20.934Z,57.02
2023-01-13T10:16:03.255Z,57.75
2023-01-13T10:18:53.282Z,57.51
2023-01-13T10:21:26.066Z,57.23
2023-01-13T10:23:58.867Z,56.34
2023-01-13T10:26:46.689Z,55.91
2023-01-13T10:29:21.093Z,55.68
2023-01-13T10:31:47.786Z,55.94
2023-01-13T10:34:16.801Z,56.07
2023-01-13T10:37:10.891Z,56.57
2023-01-13T10:39:45.054Z,55.43
2023-01-13T10:42:22.983Z,55.10
2023-01-13T10:44:49.706Z,54.08
2023-01-13T10:47:29.968Z,54.04
2023-01-13T10:50:11.918Z,54.46
2023-01-13T10:52:56.120Z,53.33
2023-01-13T10:55:26.015Z,53.36
2023-01-13T10:57:52.663Z,53.80
2023-01-13T11:00:45.971Z,52.86
2023-01-13T11:03:17.748Z,52.33
2023-01-13T11:05:50.664Z,52.81
2023-01-13T11:08:18.755Z,52.98
2023-01-13T11:10:47.068Z,52.21
2023-01-13T11:13:19.547Z,51.91
2023-01-13T11:15:59.203Z,51.50
2023-01-13T11:18:40.294Z,50.57
2023-01-13T11:21:21.563Z,51.56
2023-01-13T11:23:50.876Z,51.49
2023-01-13T11:26:27.241Z,51.43
2023-01-13T11:29:00.955Z,51.78
2023-01-13T11:31:33.802Z,51.34
2023-01-13T11:34:09.015Z,51.77
2023-01-13T11:36:40.394Z,51.84
2023-01-13T11:39:24.288Z,51.71
2023-01-13T11:42:16.386Z,52.78
2023-01-13T11:44:55.083Z,50.96
2023-01-13T11:47:23.523Z,50.72
2023-01-13T11:49:50.232Z,50.87
2023-01-13T11:52:29.241Z,50.16
2023-01-13T11:54:59.180Z,49.80
2023-01-13T11:57:47.699Z,50.06
2023-01-13T12:00:46.845Z,49.70
2023-01-13T12:03:16.275Z,51.05
2023-01-13T12:05:48.120Z,51.27
2023-01-13T12:08:20.274Z,51.23
2023-01-13T12:10:56.221Z,51.52
2023-01-13T12:13:22.923Z,51.25
2023-01-13T12:15:52.988Z,51.08
2023-01-13T12:18:19.569Z,51.51
2023-01-13T12:20:53.024Z,51.35
2023-01-13T12:23:22.820Z,51.10
2023-01-13T12:25:52.180Z,50.85
2023-01-13T12:28:23.239Z,51.07
2023-01-13T12:30:51.890Z,51.50
2023-01-13T12:33:25.250Z,51.01
2023-01-13T12:35:59.811Z,51.25
2023-01-13T12:38:34.567Z,50.78
2023-01-13T12:41:01.215Z,50.76
2023-01-13T12:43:48.563Z,50.99
2023-01-13T12:46:21.589Z,50.34
2023-01-13T12:48:54.724Z,48.00
2023-01-13T12:51:28.647Z,48.04
2023-01-13T12:53:56.545Z,48.92
2023-01-13T12:56:42.425Z,49.75
2023-01-13T12:59:21.586Z,50.21
2023-01-13T13:02:08.257Z,50.45
2023-01-13T13:05:01.506Z,51.16
2023-01-13T13:07:31.677Z,50.70
2023-01-13T13:10:24.493Z,52.27
2023-01-13T13:13:21.405Z,51.38
2023-01-13T13:15:50.009Z,51.18
2023-01-13T13:18:28.688Z,51.18
2023-01-13T13:20:57.497Z,50.79
2023-01-13T13:23:51.460Z,50.74
2023-01-13T13:26:26.502Z,52.11
2023-01-13T13:28:56.319Z,51.90
2023-01-13T13:31:58.545Z,51.65
2023-01-13T13:34:31.179Z,51.95
2023-01-13T13:37:04.370Z,52.38
2023-01-13T13:39:50.698Z,51.67
2023-01-13T13:42:45.871Z,52.18
2023-01-13T13:45:49.496Z,52.03
2023-01-13T13:48:19.385Z,51.69
2023-01-13T13:50:50.196Z,52.19
2023-01-13T13:53:19.187Z,52.45
2023-01-13T13:55:53.473Z,52.53
2023-01-13T13:58:20.753Z,52.37
2023-01-13T14:00:48.324Z,52.80
2023-01-13T14:03:33.973Z,52.43
2023-01-13T14:06:02.708Z,53.71
2023-01-13T14:08:30.318Z,52.43
2023-01-13T14:10:57.025Z,53.23
2023-01-13T14:13:25.269Z,54.10
2023-01-13T14:15:57.163Z,54.09
2023-01-13T14:18:27.084Z,54.79
2023-01-13T14:21:04.378Z,55.17
2023-01-13T14:23:34.241Z,55.95
2023-01-13T14:26:03.035Z,56.27
2023-01-13T14:28:29.643Z,56.87
2023-01-13T14:30:57.319Z,57.64
2023-01-13T14:33:40.762Z,58.88
2023-01-13T14:36:10.609Z,60.41
2023-01-13T14:38:37.818Z,62.00
2023-01-13T14:41:33.866Z,62.31
2023-01-13T14:44:01.813Z,63.33
2023-01-13T14:46:37.719Z,64.37
2023-01-13T14:49:04.522Z,64.95
2023-01-13T14:51:31.546Z,65.66
2023-01-13T14:53:59.294Z,65.19
2023-01-13T14:56:47.286Z,65.76
2023-01-13T14:59:34.130Z,66.30
2023-01-13T15:02:01.880Z,66.49
2023-01-13T15:04:33.509Z,65.89
2023-01-13T15:07:01.411Z,66.40
2023-01-13T15:09:33.664Z,66.43
2023-01-13T15:12:12.729Z,65.71
2023-01-13T15:14:39.995Z,66.19
2023-01-13T15:17:13.397Z,65.83
2023-01-13T15:19:42.485Z,66.31
2023-01-13T15:22:09.249Z,65.83
2023-01-13T15:24:36.022Z,65.79
2023-01-13T15:27:04.408Z,66.08
2023-01-13T15:29:31.240Z,66.62
2023-01-13T15:31:57.859Z,65.84
2023-01-13T15:34:24.757Z,66.12
2023-01-13T15:36:51.327Z,66.20
2023-01-13T15:39:17.999Z,66.51
2023-01-13T15:42:03.353Z,66.16
2023-01-13T15:47:39.599Z,66.19
2023-01-13T15:50:06.452Z,65.94
2023-01-13T15:52:33.074Z,66.16
2023-01-13T15:54:59.833Z,66.50
2023-01-13T15:57:31.751Z,66.14
2023-01-13T16:00:03.375Z,66.36
2023-01-13T16:02:33.274Z,66.61
2023-01-13T16:05:00.214Z,66.90
2023-01-13T16:07:26.787Z,67.04
2023-01-13T16:09:53.547Z,67.35
2023-01-13T16:12:20.297Z,67.16
2023-01-13T16:14:47.025Z,66.57
2023-01-13T16:17:21.851Z,66.67
2023-01-13T16:19:48.813Z,66.95
2023-01-13T16:22:23.379Z,66.33
2023-01-13T16:24:50.164Z,67.20
2023-01-13T16:27:18.682Z,66.35
2023-01-13T16:29:46.029Z,66.35
2023-01-13T16:32:12.760Z,66.47
2023-01-13T16:34:39.853Z,66.90
2023-01-13T16:37:15.138Z,66.33
2023-01-13T16:39:41.755Z,65.96
2023-01-13T16:42:08.647Z,66.17
2023-01-13T16:44:35.284Z,66.08
2023-01-13T16:47:07.118Z,65.78
2023-01-13T16:49:41.816Z,66.77
2023-01-13T16:52:08.629Z,66.13
2023-01-13T16:54:35.209Z,65.71
2023-01-13T16:57:01.966Z,65.85
2023-01-13T16:59:28.623Z,65.35
2023-01-13T17:01:55.397Z,65.68
2023-01-13T17:04:22.304Z,65.46
2023-01-13T17:06:48.956Z,65.87
2023-01-13T17:09:23.504Z,65.71
2023-01-13T17:11:51.002Z,66.12
2023-01-13T17:14:19.545Z,65.29
2023-01-13T17:16:49.241Z,65.16
2023-01-13T17:19:15.949Z,65.63
2023-01-13T17:21:42.740Z,66.05
2023-01-13T17:24:10.726Z,65.95
2023-01-13T17:26:38.844Z,65.94
2023-01-13T17:29:06.863Z,66.27
2023-01-13T17:31:36.598Z,65.60
2023-01-13T17:34:04.308Z,66.43
2023-01-13T17:36:31.545Z,66.47
2023-01-13T17:38:58.398Z,65.66
2023-01-13T17:41:25.411Z,65.89
2023-01-13T17:43:52.721Z,66.07
2023-01-13T17:46:22.524Z,66.05
2023-01-13T17:48:50.827Z,66.02
2023-01-13T17:51:18.808Z,66.45
2023-01-13T17:53:45.674Z,66.04
2023-01-13T17:56:13.666Z,65.69
2023-01-13T17:58:44.538Z,65.70
2023-01-13T18:01:13.633Z,65.88
2023-01-13T18:03:40.369Z,65.74
2023-01-13T18:06:09.160Z,65.19
2023-01-13T18:08:35.814Z,65.17
2023-01-13T18:11:03.004Z,65.61
2023-01-13T18:13:31.467Z,65.48
2023-01-13T18:16:04.152Z,65.79
2023-01-13T18:18:30.828Z,65.88
2023-01-13T18:21:16.399Z,65.39
2023-01-13T18:24:01.796Z,66.16
2023-01-13T18:26:47.015Z,65.36
2023-01-13T18:29:13.685Z,65.49
2023-01-13T18:31:40.733Z,65.57
2023-01-13T18:34:07.436Z,65.78
2023-01-13T18:36:34.196Z,65.89
2023-01-13T18:39:00.906Z,65.91
2023-01-13T18:41:49.282Z,65.79
2023-01-13T18:44:15.896Z,66.08
2023-01-13T18:46:42.471Z,65.54
2023-01-13T18:49:11.166Z,65.71
2023-01-13T18:51:50.233Z,66.10
2023-01-13T18:54:19.118Z,65.57
2023-01-13T18:56:46.847Z,66.14
2023-01-13T18:59:13.551Z,66.13
2023-01-13T19:01:40.437Z,66.24
2023-01-13T19:04:27.637Z,66.22
2023-01-13T19:07:00.813Z,66.14
2023-01-13T19:09:28.887Z,65.65
2023-01-13T19:11:56.828Z,66.00
2023-01-13T19:14:39.661Z,66.22
2023-01-13T19:17:20.151Z,66.76
2023-01-13T19:19:48.934Z,66.47
2023-01-13T19:22:22.981Z,67.13
2023-01-13T19:24:51.030Z,67.18
2023-01-13T19:27:22.174Z,67.14
2023-01-13T19:32:34.577Z,67.31
2023-01-13T19:35:01.492Z,67.63
2023-01-13T19:37:33.609Z,67.72
2023-01-13T19:40:09.441Z,67.56
2023-01-13T19:42:55.451Z,66.75
2023-01-13T19:45:28.501Z,66.61
2023-01-13T19:47:55.987Z,66.46
2023-01-13T19:50:23.455Z,66.50
2023-01-13T19:52:50.098Z,66.23
2023-01-13T19:55:16.719Z,66.71
2023-01-13T19:57:43.544Z,66.88
2023-01-13T20:00:11.175Z,66.65
2023-01-13T20:02:47.834Z,66.15
2023-01-13T20:05:18.266Z,66.57
2023-01-13T20:07:45.001Z,66.70
2023-01-13T20:10:13.236Z,66.51
2023-01-13T20:12:40.292Z,66.17
2023-01-13T20:17:47.882Z,66.42
2023-01-13T20:20:15.870Z,66.43
2023-01-13T20:22:42.728Z,66.59
2023-01-13T20:25:09.623Z,66.69
2023-01-13T20:27:36.690Z,66.59
2023-01-13T20:30:04.238Z,66.87
2023-01-13T20:32:31.032Z,66.67
2023-01-13T20:34:58.125Z,66.96
2023-01-13T20:37:24.980Z,67.31
2023-01-13T20:39:51.634Z,67.74
2023-01-13T20:42:30.530Z,68.10
2023-01-13T20:45:03.236Z,69.14
2023-01-13T20:47:29.962Z,68.68
2023-01-13T20:49:56.642Z,68.78
2023-01-13T20:52:23.436Z,68.79
2023-01-13T20:54:53.156Z,68.51
2023-01-13T20:57:20.163Z,68.51
2023-01-13T20:59:50.033Z,68.84
2023-01-13T21:02:17.324Z,68.74
2023-01-13T21:04:44.164Z,68.50
2023-01-13T21:07:14.000Z,68.50
2023-01-13T21:09:40.658Z,68.15
2023-01-13T21:12:26.802Z,68.48
2023-01-13T21:15:15.496Z,67.79
2023-01-13T21:18:01.858Z,67.94
2023-01-13T21:20:35.609Z,67.86
2023-01-13T21:23:03.276Z,67.91
2023-01-13T21:25:30.385Z,67.97
2023-01-13T21:28:07.383Z,67.92
2023-01-13T21:30:34.352Z,67.35
2023-01-13T21:33:01.218Z,67.36
2023-01-13T21:35:27.940Z,68.07
2023-01-13T21:37:54.485Z,67.74
2023-01-13T21:40:21.605Z,68.06
2023-01-13T21:43:06.916Z,67.94
2023-01-13T21:45:54.902Z,69.90
2023-01-13T21:48:21.591Z,71.41
2023-01-13T21:50:48.204Z,71.80
2023-01-13T21:53:14.933Z,73.92
2023-01-13T21:55:42.670Z,75.93
2023-01-13T21:58:13.750Z,76.89
2023-01-13T22:00:41.589Z,76.71
2023-01-13T22:03:09.036Z,77.25
2023-01-13T22:05:36.284Z,77.67
2023-01-13T22:08:03.472Z,77.61
2023-01-13T22:10:30.729Z,77.55
2023-01-13T22:13:23.662Z,78.01
2023-01-13T22:15:50.337Z,78.54
2023-01-13T22:18:20.701Z,78.38
2023-01-13T22:20:48.775Z,79.71
2023-01-13T22:23:15.390Z,79.41
2023-01-13T22:25:42.011Z,78.56
2023-01-13T22:28:09.431Z,78.96
2023-01-13T22:30:36.728Z,78.84
2023-01-13T22:33:03.524Z,79.83
2023-01-13T22:35:30.320Z,78.89
2023-01-13T22:37:56.974Z,79.39
2023-01-13T22:40:23.936Z,79.43
2023-01-13T22:42:50.919Z,78.45
2023-01-13T22:45:17.639Z,78.92
2023-01-13T22:47:44.205Z,78.51
2023-01-13T22:50:12.658Z,78.69
2023-01-13T22:52:39.624Z,77.97
2023-01-13T22:55:06.954Z,77.06
2023-01-13T22:57:36.446Z,77.29
2023-01-13T23:00:10.064Z,76.77
2023-01-13T23:02:37.816Z,76.48
2023-01-13T23:05:04.616Z,75.24
2023-01-13T23:07:31.195Z,75.66
2023-01-13T23:09:57.859Z,74.31
2023-01-13T23:12:24.468Z,73.76
2023-01-13T23:14:51.165Z,73.39
2023-01-13T23:17:17.797Z,72.89
2023-01-13T23:19:44.466Z,72.57
2023-01-13T23:22:11.091Z,72.16
2023-01-13T23:24:37.695Z,72.42
2023-01-13T23:27:04.266Z,71.77
2023-01-13T23:29:30.924Z,71.66
2023-01-13T23:31:57.469Z,71.75
2023-01-13T23:34:24.111Z,71.21
2023-01-13T23:36:50.634Z,71.32
2023-01-13T23:39:19.628Z,71.23
2023-01-13T23:41:46.193Z,71.50
2023-01-13T23:44:14.055Z,70.80
2023-01-13T23:46:40.980Z,70.54
2023-01-13T23:49:07.849Z,70.07
2023-01-13T23:51:34.548Z,69.90
2023-01-13T23:54:01.363Z,69.62
2023-01-13T23:56:31.473Z,69.71
2023-01-13T23:58:58.376Z,69.44
